Philadelphia — WDJ3655 — position and weather

sailwx.info

Track history (hours):
 
Tides and Currents Weather Stations Pressure Air Temp Water Temp Dewpoint Dewpoint Depression Visibility Wind Speed Wind Dir Waves Ship Positions

Philadelphia

Owner: Vane Line Bunkering, Inc., Philadelphia, PA. More information available from US FCC via Universal Licensing System and Coast Guard Vessel Documentation Center.

Last reported at 2018-Jul-22 00:30 UTC. Time now 2018-Jul-22 00:30 UTC.
Position N 40°40' W 074°00'.

Length 22 m; draft 5 m.

Type: Towing. MMSI: 369230000.

Date/timePositionNaut miles runAvg speedWind from/ knotsBaromVisibWave heightAir tempDewpointWater temp
2018-Jul-22 00:30N 40°40' W 074°00'0 0.0
2018-Jul-22 00:00N 40°40' W 074°00'0 0.0
2018-Jul-21 23:30N 40°40' W 074°00'0 0.0
2018-Jul-21 23:00N 40°40' W 074°00'0 0.0
2018-Jul-21 22:30N 40°40' W 074°00'0 0.0
2018-Jul-21 22:00N 40°40' W 074°00'0 0.0
2018-Jul-21 21:30N 40°40' W 074°00'0 0.0
2018-Jul-21 21:00N 40°40' W 074°00'2 3.5
2018-Jul-21 20:30N 40°41' W 074°02'1 2.6
2018-Jul-21 20:00N 40°40' W 074°03'1 2.9
2018-Jul-21 19:30N 40°38' W 074°04'2 3.8
2018-Jul-21 19:01N 40°40' W 074°04'1 2.8
2018-Jul-21 18:30N 40°39' W 074°05'1 2.4
2018-Jul-21 18:00N 40°39' W 074°07'0 0.7
2018-Jul-21 17:30N 40°39' W 074°07'0 0.0
2018-Jul-21 17:00N 40°39' W 074°07'0 0.0
2018-Jul-21 16:30N 40°39' W 074°07'1 1.2
2018-Jul-21 16:00N 40°39' W 074°06'0 0.0
2018-Jul-21 15:30N 40°39' W 074°06'0 0.0
2018-Jul-21 15:00N 40°39' W 074°06'0 0.0
2018-Jul-21 14:30N 40°39' W 074°06'0 0.0
2018-Jul-21 13:30N 40°39' W 074°06'0 0.9
2018-Jul-21 13:00N 40°39' W 074°05'2 3.1
2018-Jul-21 12:30N 40°38' W 074°04'1 1.8
2018-Jul-21 12:01N 40°39' W 074°04'4 7.2
2018-Jul-21 11:30N 40°39' W 074°09'2 3.9
2018-Jul-21 11:00N 40°41' W 074°09'0 0.2
2018-Jul-21 10:30N 40°41' W 074°09'0 0.0
2018-Jul-21 10:00N 40°41' W 074°09'0 0.0
2018-Jul-21 09:30N 40°41' W 074°09'0 0.0
2018-Jul-21 09:00N 40°41' W 074°09'0 0.0
2018-Jul-21 08:30N 40°41' W 074°09'0 0.0
2018-Jul-21 08:00N 40°41' W 074°09'1 1.0
2018-Jul-21 07:30N 40°41' W 074°09'1 2.0
2018-Jul-21 07:00N 40°40' W 074°09'1 2.8
2018-Jul-21 06:30N 40°39' W 074°09'2 3.9
2018-Jul-21 06:00N 40°39' W 074°06'2 4.1
2018-Jul-21 05:30N 40°39' W 074°09'0 0.9
2018-Jul-21 04:58N 40°39' W 074°09'2 4.9
2018-Jul-21 04:30N 40°38' W 074°12'3 2.1
2018-Jul-21 03:17N 40°35' W 074°12'3 9.2
2018-Jul-21 03:00N 40°38' W 074°12'3 6.6
2018-Jul-21 02:30N 40°40' W 074°09'0 0.5
2018-Jul-21 02:00N 40°40' W 074°08'1 1.7
2018-Jul-21 01:14N 40°41' W 074°08'0 0.2
2018-Jul-21 01:00N 40°41' W 074°08'0 0.0
2018-Jul-21 00:30N 40°41' W 074°08'0 0.0
2018-Jul-20 23:56N 40°41' W 074°08'1 3.2
2018-Jul-20 23:30N 40°40' W 074°08'2 4.8
2018-Jul-20 23:00N 40°39' W 074°06'4 8.2
2018-Jul-20 22:30N 40°40' W 074°01'0 0.7
2018-Jul-20 22:00N 40°40' W 074°00'0 0.0
2018-Jul-20 21:30N 40°40' W 074°00'2 3.1
2018-Jul-20 21:00N 40°39' W 074°02'5 9.9
2018-Jul-20 20:30N 40°39' W 074°08'3 4.8
2018-Jul-20 19:56N 40°41' W 074°08'1 1.9
2018-Jul-20 19:30N 40°41' W 074°08'2 4.0
2018-Jul-20 19:00N 40°39' W 074°07'1 1.4
2018-Jul-20 18:30N 40°39' W 074°06'0 0.0
2018-Jul-20 18:00N 40°39' W 074°06'2 3.8
2018-Jul-20 17:30N 40°39' W 074°08'2 4.2
2018-Jul-20 17:00N 40°41' W 074°09'0 0.1
2018-Jul-20 16:30N 40°41' W 074°09'2 3.1
2018-Jul-20 16:00N 40°39' W 074°09'3 5.6
2018-Jul-20 15:30N 40°39' W 074°05'0 0.2
2018-Jul-20 15:00N 40°39' W 074°05'1 1.0
2018-Jul-20 14:30N 40°39' W 074°06'1 1.3
2018-Jul-20 14:00N 40°39' W 074°06'1 1.6
2018-Jul-20 13:30N 40°39' W 074°05'3 5.1
2018-Jul-20 13:00N 40°39' W 074°02'2 3.1
2018-Jul-20 12:30N 40°40' W 074°00'0 0.0
2018-Jul-20 12:00N 40°40' W 074°00'0 0.0
2018-Jul-20 11:30N 40°40' W 074°00'4 7.3
2018-Jul-20 11:01N 40°39' W 074°05'3 5.5
2018-Jul-20 10:30N 40°40' W 074°08'1 1.2
2018-Jul-20 10:00N 40°41' W 074°09'0 0.0
2018-Jul-20 09:30N 40°41' W 074°09'0 0.0
2018-Jul-20 09:00N 40°41' W 074°09'0 0.0
2018-Jul-20 08:30N 40°41' W 074°09'0 0.0
2018-Jul-20 08:00N 40°41' W 074°09'1 1.7
2018-Jul-20 07:31N 40°41' W 074°10'0 0.0
2018-Jul-20 07:00N 40°41' W 074°10'0 0.0
2018-Jul-20 06:30N 40°41' W 074°10'0 0.0
2018-Jul-20 06:00N 40°41' W 074°10'0 0.0
2018-Jul-20 05:30N 40°41' W 074°10'0 0.0
2018-Jul-20 05:00N 40°41' W 074°10'0 0.0
2018-Jul-20 04:30N 40°41' W 074°10'1 2.9
2018-Jul-20 04:00N 40°40' W 074°09'0 0.1
2018-Jul-20 03:30N 40°40' W 074°09'0 0.5
2018-Jul-20 03:00N 40°40' W 074°08'1 2.8
2018-Jul-20 02:30N 40°39' W 074°08'1 2.2
2018-Jul-20 02:00N 40°39' W 074°07'0 0.9
2018-Jul-20 01:30N 40°39' W 074°06'0 0.6
2018-Jul-20 01:00N 40°39' W 074°06'0 0.0
2018-Jul-20 00:30N 40°39' W 074°06'0 0.0
2018-Jul-20 00:00N 40°39' W 074°06'1 2.2
2018-Jul-19 23:30N 40°39' W 074°05'3 6.6
2018-Jul-19 23:00N 40°40' W 074°00'0 0.0
2018-Jul-19 22:30N 40°40' W 074°00'3 5.0
2018-Jul-19 22:00N 40°40' W 074°04'1 2.1
2018-Jul-19 21:30N 40°40' W 074°05'0 0.0
2018-Jul-19 21:00N 40°40' W 074°05'0 0.0
2018-Jul-19 20:30N 40°40' W 074°05'0 0.0
2018-Jul-19 20:00N 40°40' W 074°05'3 5.6
2018-Jul-19 19:30N 40°39' W 074°08'2 3.0
2018-Jul-19 19:00N 40°40' W 074°08'1 1.8
2018-Jul-19 18:30N 40°41' W 074°09'0 0.1
2018-Jul-19 18:00N 40°41' W 074°09'1 1.1
2018-Jul-19 17:30N 40°41' W 074°09'0 0.0
2018-Jul-19 17:00N 40°41' W 074°09'0 0.0
2018-Jul-19 16:30N 40°41' W 074°09'0 0.0
2018-Jul-19 16:00N 40°41' W 074°09'0 0.0
2018-Jul-19 15:30N 40°41' W 074°09'0 0.0
2018-Jul-19 15:00N 40°41' W 074°09'0 0.0
2018-Jul-19 14:00N 40°41' W 074°09'0 0.0
2018-Jul-19 13:30N 40°41' W 074°09'0 0.0
2018-Jul-19 13:00N 40°41' W 074°09'0 0.0
2018-Jul-19 12:30N 40°41' W 074°09'0 0.0
2018-Jul-19 12:00N 40°41' W 074°09'0 0.1
2018-Jul-19 11:30N 40°41' W 074°09'1 2.0
2018-Jul-19 11:00N 40°41' W 074°08'2 4.0
2018-Jul-19 10:30N 40°39' W 074°08'1 1.3
2018-Jul-19 10:00N 40°39' W 074°07'0 0.0
2018-Jul-19 09:30N 40°39' W 074°07'0 0.0
2018-Jul-19 09:00N 40°39' W 074°07'0 0.0
2018-Jul-19 08:30N 40°39' W 074°07'0 0.0
2018-Jul-19 08:00N 40°39' W 074°07'0 0.0
2018-Jul-19 07:30N 40°39' W 074°07'0 0.0
2018-Jul-19 07:01N 40°39' W 074°07'3 6.6
2018-Jul-19 06:30N 40°40' W 074°03'0 0.3
2018-Jul-19 06:00N 40°40' W 074°03'1 2.7
2018-Jul-19 05:31N 40°40' W 074°05'0 0.1
2018-Jul-19 05:00N 40°40' W 074°05'0 0.0
2018-Jul-19 04:30N 40°40' W 074°05'0 0.0
2018-Jul-19 04:00N 40°40' W 074°05'0 0.0
2018-Jul-19 03:30N 40°40' W 074°05'2 3.5
2018-Jul-19 02:58N 40°39' W 074°06'2 4.3
2018-Jul-19 02:30N 40°40' W 074°09'0 0.0
2018-Jul-19 02:00N 40°40' W 074°09'1 1.3
2018-Jul-19 01:30N 40°39' W 074°09'3 5.7
2018-Jul-19 01:01N 40°39' W 074°05'0 0.3
2018-Jul-19 00:31N 40°39' W 074°05'4 7.3
2018-Jul-19 00:00N 40°40' W 074°01'1 2.3
2018-Jul-18 23:30N 40°39' W 074°02'4 7.9
2018-Jul-18 23:00N 40°39' W 074°07'2 4.1
2018-Jul-18 22:31N 40°40' W 074°08'1 1.3
2018-Jul-18 22:00N 40°41' W 074°09'0 0.0
2018-Jul-18 21:30N 40°41' W 074°09'0 0.0
2018-Jul-18 21:00N 40°41' W 074°09'1 1.7
2018-Jul-18 20:31N 40°41' W 074°08'0 0.0
2018-Jul-18 20:00N 40°41' W 074°08'1 2.6
2018-Jul-18 19:30N 40°40' W 074°08'0 0.0
2018-Jul-18 19:00N 40°40' W 074°08'0 0.0
2018-Jul-18 18:30N 40°40' W 074°08'0 0.0
2018-Jul-18 18:00N 40°40' W 074°08'0 0.0
2018-Jul-18 17:30N 40°40' W 074°08'0 0.0
2018-Jul-18 17:00N 40°40' W 074°08'0 0.0
2018-Jul-18 16:30N 40°40' W 074°08'1 1.8
2018-Jul-18 16:01N 40°39' W 074°09'3 5.0
2018-Jul-18 15:29N 40°39' W 074°05'0 0.1
2018-Jul-18 15:00N 40°39' W 074°05'3 5.8
2018-Jul-18 14:30N 40°40' W 074°01'1 1.1
2018-Jul-18 13:30N 40°40' W 074°00'0 0.6
2018-Jul-18 13:00N 40°40' W 074°00'4 8.3
2018-Jul-18 12:30N 40°39' W 074°06'2 4.2
2018-Jul-18 11:55N 40°40' W 074°08'0 0.2
2018-Jul-18 11:30N 40°40' W 074°08'1 1.4
2018-Jul-18 10:28N 40°41' W 074°10'0 0.0
2018-Jul-18 09:58N 40°41' W 074°10'0 0.0
2018-Jul-18 09:28N 40°41' W 074°10'0 0.0
2018-Jul-18 08:58N 40°41' W 074°10'0 0.0
2018-Jul-18 08:16N 40°41' W 074°10'0 0.0
2018-Jul-18 07:58N 40°41' W 074°10'0 0.0
2018-Jul-18 07:28N 40°41' W 074°10'0 0.0
2018-Jul-18 06:58N 40°41' W 074°10'0 0.0
2018-Jul-18 06:28N 40°41' W 074°10'0 0.0
2018-Jul-18 05:58N 40°41' W 074°10'0 0.0
2018-Jul-18 05:22N 40°41' W 074°10'1 3.6
2018-Jul-18 05:00N 40°40' W 074°08'2 4.1
2018-Jul-18 04:30N 40°39' W 074°06'1 1.9
2018-Jul-18 03:58N 40°39' W 074°05'3 6.7
2018-Jul-18 03:31N 40°40' W 074°01'1 1.4
2018-Jul-18 03:00N 40°40' W 074°00'0 0.0
2018-Jul-18 02:30N 40°40' W 074°00'0 0.0
2018-Jul-18 02:00N 40°40' W 074°00'0 0.0
2018-Jul-18 01:30N 40°40' W 074°00'0 0.0
2018-Jul-18 01:00N 40°40' W 074°00'0 0.0
2018-Jul-18 00:30N 40°40' W 074°00'0 0.0
2018-Jul-18 00:00N 40°40' W 074°00'0 0.0
2018-Jul-17 23:30N 40°40' W 074°00'0 0.0
2018-Jul-17 23:00N 40°40' W 074°00'0 0.0
2018-Jul-17 22:30N 40°40' W 074°00'0 0.5
2018-Jul-17 21:59N 40°40' W 074°00'1 1.9
2018-Jul-17 21:30N 40°40' W 074°01'4 8.5
2018-Jul-17 21:00N 40°39' W 074°07'3 5.1
2018-Jul-17 20:30N 40°39' W 074°10'1 2.4
2018-Jul-17 20:00N 40°39' W 074°08'2 4.0
2018-Jul-17 19:30N 40°39' W 074°06'0 0.0
2018-Jul-17 19:00N 40°39' W 074°06'0 0.0
2018-Jul-17 18:30N 40°39' W 074°06'1 2.3
2018-Jul-17 18:00N 40°39' W 074°07'2 4.2
2018-Jul-17 17:30N 40°39' W 074°10'1 2.4
2018-Jul-17 17:00N 40°39' W 074°08'4 8.4
2018-Jul-17 16:31N 40°40' W 074°03'1 1.4
2018-Jul-17 16:00N 40°41' W 074°03'0 0.1
2018-Jul-17 15:30N 40°41' W 074°03'2 3.4
2018-Jul-17 14:58N 40°40' W 074°00'0 0.0
2018-Jul-17 14:28N 40°40' W 074°00'0 0.6
2018-Jul-17 13:59N 40°40' W 074°00'0 0.0
2018-Jul-17 13:29N 40°40' W 074°00'0 0.0
2018-Jul-17 12:59N 40°40' W 074°00'0 0.0
2018-Jul-17 12:29N 40°40' W 074°00'0 0.0
2018-Jul-17 11:59N 40°40' W 074°00'0 0.0
2018-Jul-17 11:29N 40°40' W 074°00'0 0.0
2018-Jul-17 10:56N 40°40' W 074°00'0 0.0
2018-Jul-17 10:29N 40°40' W 074°00'0 0.0
2018-Jul-17 09:59N 40°40' W 074°00'0 0.0
2018-Jul-17 09:29N 40°40' W 074°00'0 0.0
2018-Jul-17 08:59N 40°40' W 074°00'0 0.0
2018-Jul-17 08:29N 40°40' W 074°00'0 0.0
2018-Jul-17 07:56N 40°40' W 074°00'0 0.0
2018-Jul-17 07:29N 40°40' W 074°00'0 0.0
2018-Jul-17 06:59N 40°40' W 074°00'0 0.0
2018-Jul-17 06:29N 40°40' W 074°00'0 0.0
2018-Jul-17 05:59N 40°40' W 074°00'0 0.0
2018-Jul-17 05:29N 40°40' W 074°00'0 0.0
2018-Jul-17 04:59N 40°40' W 074°00'0 0.0
2018-Jul-17 04:29N 40°40' W 074°00'0 0.0
2018-Jul-17 03:59N 40°40' W 074°00'0 0.0
2018-Jul-17 03:29N 40°40' W 074°00'0 0.0
2018-Jul-17 02:59N 40°40' W 074°00'0 0.0
2018-Jul-17 02:29N 40°40' W 074°00'0 0.0
2018-Jul-17 02:00N 40°40' W 074°00'0 0.0
2018-Jul-17 01:30N 40°40' W 074°00'0 0.0
2018-Jul-17 01:00N 40°40' W 074°00'0 0.0
2018-Jul-17 00:30N 40°40' W 074°00'0 0.0
2018-Jul-16 23:30N 40°40' W 074°00'0 0.0
2018-Jul-16 23:00N 40°40' W 074°00'0 0.0
2018-Jul-16 22:30N 40°40' W 074°00'0 0.0
2018-Jul-16 22:00N 40°40' W 074°00'0 0.0
2018-Jul-16 21:30N 40°40' W 074°00'0 0.0
2018-Jul-16 21:00N 40°40' W 074°00'0 0.0
2018-Jul-16 20:30N 40°40' W 074°00'0 0.0
2018-Jul-16 20:00N 40°40' W 074°00'0 0.0
2018-Jul-16 19:30N 40°40' W 074°00'0 0.0
2018-Jul-16 19:00N 40°40' W 074°00'0 0.0
2018-Jul-16 18:30N 40°40' W 074°00'0 0.0
2018-Jul-16 18:00N 40°40' W 074°00'0 0.1
2018-Jul-16 17:30N 40°40' W 074°00'0 0.0
2018-Jul-16 17:00N 40°40' W 074°00'0 0.0
2018-Jul-16 16:30N 40°40' W 074°00'0 0.0
2018-Jul-16 16:00N 40°40' W 074°00'0 0.0
2018-Jul-16 15:30N 40°40' W 074°00'0 0.0
2018-Jul-16 15:00N 40°40' W 074°00'0 0.0
2018-Jul-16 14:30N 40°40' W 074°00'0 0.0
2018-Jul-16 14:00N 40°40' W 074°00'0 0.0
2018-Jul-16 13:30N 40°40' W 074°00'0 0.0
2018-Jul-16 13:00N 40°40' W 074°00'0 0.0
2018-Jul-16 12:30N 40°40' W 074°00'0 0.0
2018-Jul-16 12:00N 40°40' W 074°00'0 0.0
2018-Jul-16 11:30N 40°40' W 074°00'0 0.0
2018-Jul-16 11:00N 40°40' W 074°00'0 0.0
2018-Jul-16 10:31N 40°40' W 074°00'0 0.0
2018-Jul-16 10:01N 40°40' W 074°00'0 0.0
2018-Jul-16 09:30N 40°40' W 074°00'0 0.0
2018-Jul-16 09:00N 40°40' W 074°00'0 0.0
2018-Jul-16 08:30N 40°40' W 074°00'0 0.0
2018-Jul-16 08:00N 40°40' W 074°00'0 0.0
2018-Jul-16 07:30N 40°40' W 074°00'0 0.0
2018-Jul-16 07:01N 40°40' W 074°00'2 4.5
2018-Jul-16 06:30N 40°39' W 074°03'0 0.1
2018-Jul-16 06:00N 40°39' W 074°03'0 0.2
2018-Jul-16 05:30N 40°40' W 074°03'0 0.2
2018-Jul-16 05:00N 40°40' W 074°03'0 0.0
2018-Jul-16 04:30N 40°40' W 074°03'0 0.0
2018-Jul-16 04:00N 40°40' W 074°03'0 0.0
2018-Jul-16 03:30N 40°40' W 074°03'0 0.0
2018-Jul-16 03:00N 40°40' W 074°03'0 0.0
2018-Jul-16 02:30N 40°40' W 074°03'0 0.0
2018-Jul-16 02:00N 40°40' W 074°03'0 0.1
2018-Jul-16 01:30N 40°39' W 074°03'0 0.0
2018-Jul-16 01:00N 40°39' W 074°03'0 0.1
2018-Jul-16 00:30N 40°39' W 074°03'0 0.0
2018-Jul-16 00:00N 40°39' W 074°03'0 0.0
2018-Jul-15 23:30N 40°40' W 074°03'0 0.1
2018-Jul-15 23:00N 40°39' W 074°03'0 0.2
2018-Jul-15 22:30N 40°39' W 074°03'0 0.1
2018-Jul-15 22:00N 40°39' W 074°03'0 0.1
2018-Jul-15 21:30N 40°39' W 074°03'0 0.0
2018-Jul-15 21:00N 40°39' W 074°03'0 0.0
2018-Jul-15 20:30N 40°39' W 074°03'0 0.0
2018-Jul-15 19:59N 40°39' W 074°03'0 0.0
2018-Jul-15 19:29N 40°39' W 074°03'0 0.0
2018-Jul-15 19:00N 40°39' W 074°03'0 0.1
2018-Jul-15 18:27N 40°39' W 074°03'0 0.1
2018-Jul-15 18:00N 40°39' W 074°03'0 0.1
2018-Jul-15 17:30N 40°39' W 074°03'0 0.1
2018-Jul-15 17:00N 40°39' W 074°03'0 0.1
2018-Jul-15 16:30N 40°40' W 074°03'0 0.0
2018-Jul-15 15:59N 40°39' W 074°03'0 0.1
2018-Jul-15 15:29N 40°40' W 074°03'0 0.0
2018-Jul-15 15:00N 40°40' W 074°03'0 0.1
2018-Jul-15 14:30N 40°40' W 074°03'0 0.0
2018-Jul-15 14:00N 40°40' W 074°03'1 1.9
2018-Jul-15 13:30N 40°40' W 074°02'50 8.0
2018-Jul-15 07:16N 41°06' W 073°05'2 9.3
2018-Jul-15 07:00N 41°07' W 073°03'7 0.3
2018-Jul-14 07:27N 41°13' W 072°57'0 0.0
2018-Jul-14 06:49N 41°13' W 072°57'0 0.0
2018-Jul-13 16:54N 41°13' W 072°57'0 0.0
2018-Jul-13 10:38N 41°13' W 072°57'0 0.1
2018-Jul-13 10:28N 41°13' W 072°57'0 0.1
2018-Jul-13 09:59N 41°13' W 072°57'0 0.0
2018-Jul-13 09:30N 41°13' W 072°57'0 0.0
2018-Jul-13 08:43N 41°13' W 072°57'0 0.0
2018-Jul-13 08:16N 41°13' W 072°57'0 0.0
2018-Jul-13 07:59N 41°13' W 072°57'0 0.0
2018-Jul-13 07:30N 41°13' W 072°57'0 0.0
2018-Jul-13 07:00N 41°13' W 072°57'0 0.0
2018-Jul-13 06:30N 41°13' W 072°57'0 0.0
2018-Jul-13 06:01N 41°13' W 072°57'0 0.0
2018-Jul-13 05:30N 41°13' W 072°57'0 0.1
2018-Jul-13 05:00N 41°13' W 072°57'0 0.0
2018-Jul-13 04:30N 41°13' W 072°57'0 0.1
2018-Jul-13 03:08N 41°13' W 072°57'0 0.5
2018-Jul-13 03:00N 41°13' W 072°57'46 7.4
2018-Jul-12 20:42N 40°48' W 073°49'2 8.7
2018-Jul-12 20:27N 40°48' W 073°52'3 6.8
2018-Jul-12 20:00N 40°47' W 073°56'3 5.5
2018-Jul-12 19:30N 40°45' W 073°58'2 4.5
2018-Jul-12 19:00N 40°42' W 073°59'2 4.5
2018-Jul-12 18:30N 40°41' W 074°01'2 4.5
2018-Jul-12 18:00N 40°39' W 074°02'2 4.4
2018-Jul-12 17:30N 40°41' W 074°02'3 5.3
2018-Jul-12 17:00N 40°43' W 074°01'2 3.9
2018-Jul-12 16:31N 40°45' W 074°01'1 2.2
2018-Jul-12 16:00N 40°44' W 074°01'2 4.4
2018-Jul-12 15:30N 40°42' W 074°02'2 3.9
2018-Jul-12 15:00N 40°40' W 074°03'2 3.8
2018-Jul-12 14:30N 40°39' W 074°04'2 4.1
2018-Jul-12 14:00N 40°39' W 074°07'0 0.0
2018-Jul-12 13:30N 40°39' W 074°07'0 0.0
2018-Jul-12 13:00N 40°39' W 074°07'0 0.0
2018-Jul-12 12:30N 40°39' W 074°07'3 7.0
2018-Jul-12 12:01N 40°39' W 074°02'2 3.6
2018-Jul-12 11:30N 40°40' W 074°00'0 0.0
2018-Jul-12 11:00N 40°40' W 074°00'0 0.0
2018-Jul-12 10:30N 40°40' W 074°00'0 0.0
2018-Jul-12 10:00N 40°40' W 074°00'0 0.0
2018-Jul-12 09:30N 40°40' W 074°00'0 0.0
2018-Jul-12 09:00N 40°40' W 074°00'0 0.0
2018-Jul-12 08:30N 40°40' W 074°00'0 0.0
2018-Jul-12 08:00N 40°40' W 074°00'0 0.0
2018-Jul-12 07:30N 40°40' W 074°00'1 1.4
2018-Jul-12 07:00N 40°40' W 074°01'4 7.1
2018-Jul-12 06:31N 40°39' W 074°06'1 1.1
2018-Jul-12 06:00N 40°39' W 074°06'2 3.4
2018-Jul-12 05:31N 40°39' W 074°04'3 6.5
2018-Jul-12 05:00N 40°40' W 074°00'0 0.1
2018-Jul-12 04:30N 40°40' W 074°00'0 0.0
2018-Jul-12 04:00N 40°40' W 074°00'0 0.0
2018-Jul-12 03:30N 40°40' W 074°00'0 0.0
2018-Jul-12 03:00N 40°40' W 074°00'0 0.0
2018-Jul-12 02:30N 40°40' W 074°00'0 0.0
2018-Jul-12 02:00N 40°40' W 074°00'0 0.0
2018-Jul-12 01:30N 40°40' W 074°00'0 0.0
2018-Jul-12 01:00N 40°40' W 074°00'1 1.5
2018-Jul-12 00:30N 40°40' W 074°01'  
Track history (hours):
 
Tides and Currents Weather Stations Pressure Air Temp Water Temp Dewpoint Dewpoint Depression Visibility Wind Speed Wind Dir Waves Ship Positions

Philadelphia

Owner: Vane Line Bunkering, Inc., Philadelphia, PA. More information available from US FCC via Universal Licensing System and Coast Guard Vessel Documentation Center.

Last reported at 2018-Jul-22 00:30 UTC. Time now 2018-Jul-22 00:30 UTC.
Position N 40°40' W 074°00'.

Length 22 m; draft 5 m.

Type: Towing. MMSI: 369230000.

Date/timePositionNaut miles runAvg speedWind from/ knotsBaromVisibWave heightAir tempDewpointWater temp
2018-Jul-22 00:30N 40°40' W 074°00'0 0.0
2018-Jul-22 00:00N 40°40' W 074°00'0 0.0
2018-Jul-21 23:30N 40°40' W 074°00'0 0.0
2018-Jul-21 23:00N 40°40' W 074°00'0 0.0
2018-Jul-21 22:30N 40°40' W 074°00'0 0.0
2018-Jul-21 22:00N 40°40' W 074°00'0 0.0
2018-Jul-21 21:30N 40°40' W 074°00'0 0.0
2018-Jul-21 21:00N 40°40' W 074°00'2 3.5
2018-Jul-21 20:30N 40°41' W 074°02'1 2.6
2018-Jul-21 20:00N 40°40' W 074°03'1 2.9
2018-Jul-21 19:30N 40°38' W 074°04'2 3.8
2018-Jul-21 19:01N 40°40' W 074°04'1 2.8
2018-Jul-21 18:30N 40°39' W 074°05'1 2.4
2018-Jul-21 18:00N 40°39' W 074°07'0 0.7
2018-Jul-21 17:30N 40°39' W 074°07'0 0.0
2018-Jul-21 17:00N 40°39' W 074°07'0 0.0
2018-Jul-21 16:30N 40°39' W 074°07'1 1.2
2018-Jul-21 16:00N 40°39' W 074°06'0 0.0
2018-Jul-21 15:30N 40°39' W 074°06'0 0.0
2018-Jul-21 15:00N 40°39' W 074°06'0 0.0
2018-Jul-21 14:30N 40°39' W 074°06'0 0.0
2018-Jul-21 13:30N 40°39' W 074°06'0 0.9
2018-Jul-21 13:00N 40°39' W 074°05'2 3.1
2018-Jul-21 12:30N 40°38' W 074°04'1 1.8
2018-Jul-21 12:01N 40°39' W 074°04'4 7.2
2018-Jul-21 11:30N 40°39' W 074°09'2 3.9
2018-Jul-21 11:00N 40°41' W 074°09'0 0.2
2018-Jul-21 10:30N 40°41' W 074°09'0 0.0
2018-Jul-21 10:00N 40°41' W 074°09'0 0.0
2018-Jul-21 09:30N 40°41' W 074°09'0 0.0
2018-Jul-21 09:00N 40°41' W 074°09'0 0.0
2018-Jul-21 08:30N 40°41' W 074°09'0 0.0
2018-Jul-21 08:00N 40°41' W 074°09'1 1.0
2018-Jul-21 07:30N 40°41' W 074°09'1 2.0
2018-Jul-21 07:00N 40°40' W 074°09'1 2.8
2018-Jul-21 06:30N 40°39' W 074°09'2 3.9
2018-Jul-21 06:00N 40°39' W 074°06'2 4.1
2018-Jul-21 05:30N 40°39' W 074°09'0 0.9
2018-Jul-21 04:58N 40°39' W 074°09'2 4.9
2018-Jul-21 04:30N 40°38' W 074°12'3 2.1
2018-Jul-21 03:17N 40°35' W 074°12'3 9.2
2018-Jul-21 03:00N 40°38' W 074°12'3 6.6
2018-Jul-21 02:30N 40°40' W 074°09'0 0.5
2018-Jul-21 02:00N 40°40' W 074°08'1 1.7
2018-Jul-21 01:14N 40°41' W 074°08'0 0.2
2018-Jul-21 01:00N 40°41' W 074°08'0 0.0
2018-Jul-21 00:30N 40°41' W 074°08'0 0.0
2018-Jul-20 23:56N 40°41' W 074°08'1 3.2
2018-Jul-20 23:30N 40°40' W 074°08'2 4.8
2018-Jul-20 23:00N 40°39' W 074°06'4 8.2
2018-Jul-20 22:30N 40°40' W 074°01'0 0.7
2018-Jul-20 22:00N 40°40' W 074°00'0 0.0
2018-Jul-20 21:30N 40°40' W 074°00'2 3.1
2018-Jul-20 21:00N 40°39' W 074°02'5 9.9
2018-Jul-20 20:30N 40°39' W 074°08'3 4.8
2018-Jul-20 19:56N 40°41' W 074°08'1 1.9
2018-Jul-20 19:30N 40°41' W 074°08'2 4.0
2018-Jul-20 19:00N 40°39' W 074°07'1 1.4
2018-Jul-20 18:30N 40°39' W 074°06'0 0.0
2018-Jul-20 18:00N 40°39' W 074°06'2 3.8
2018-Jul-20 17:30N 40°39' W 074°08'2 4.2
2018-Jul-20 17:00N 40°41' W 074°09'0 0.1
2018-Jul-20 16:30N 40°41' W 074°09'2 3.1
2018-Jul-20 16:00N 40°39' W 074°09'3 5.6
2018-Jul-20 15:30N 40°39' W 074°05'0 0.2
2018-Jul-20 15:00N 40°39' W 074°05'1 1.0
2018-Jul-20 14:30N 40°39' W 074°06'1 1.3
2018-Jul-20 14:00N 40°39' W 074°06'1 1.6
2018-Jul-20 13:30N 40°39' W 074°05'3 5.1
2018-Jul-20 13:00N 40°39' W 074°02'2 3.1
2018-Jul-20 12:30N 40°40' W 074°00'0 0.0
2018-Jul-20 12:00N 40°40' W 074°00'0 0.0
2018-Jul-20 11:30N 40°40' W 074°00'4 7.3
2018-Jul-20 11:01N 40°39' W 074°05'3 5.5
2018-Jul-20 10:30N 40°40' W 074°08'1 1.2
2018-Jul-20 10:00N 40°41' W 074°09'0 0.0
2018-Jul-20 09:30N 40°41' W 074°09'0 0.0
2018-Jul-20 09:00N 40°41' W 074°09'0 0.0
2018-Jul-20 08:30N 40°41' W 074°09'0 0.0
2018-Jul-20 08:00N 40°41' W 074°09'1 1.7
2018-Jul-20 07:31N 40°41' W 074°10'0 0.0
2018-Jul-20 07:00N 40°41' W 074°10'0 0.0
2018-Jul-20 06:30N 40°41' W 074°10'0 0.0
2018-Jul-20 06:00N 40°41' W 074°10'0 0.0
2018-Jul-20 05:30N 40°41' W 074°10'0 0.0
2018-Jul-20 05:00N 40°41' W 074°10'0 0.0
2018-Jul-20 04:30N 40°41' W 074°10'1 2.9
2018-Jul-20 04:00N 40°40' W 074°09'0 0.1
2018-Jul-20 03:30N 40°40' W 074°09'0 0.5
2018-Jul-20 03:00N 40°40' W 074°08'1 2.8
2018-Jul-20 02:30N 40°39' W 074°08'1 2.2
2018-Jul-20 02:00N 40°39' W 074°07'0 0.9
2018-Jul-20 01:30N 40°39' W 074°06'0 0.6
2018-Jul-20 01:00N 40°39' W 074°06'0 0.0
2018-Jul-20 00:30N 40°39' W 074°06'0 0.0
2018-Jul-20 00:00N 40°39' W 074°06'1 2.2
2018-Jul-19 23:30N 40°39' W 074°05'3 6.6
2018-Jul-19 23:00N 40°40' W 074°00'0 0.0
2018-Jul-19 22:30N 40°40' W 074°00'3 5.0
2018-Jul-19 22:00N 40°40' W 074°04'1 2.1
2018-Jul-19 21:30N 40°40' W 074°05'0 0.0
2018-Jul-19 21:00N 40°40' W 074°05'0 0.0
2018-Jul-19 20:30N 40°40' W 074°05'0 0.0
2018-Jul-19 20:00N 40°40' W 074°05'3 5.6
2018-Jul-19 19:30N 40°39' W 074°08'2 3.0
2018-Jul-19 19:00N 40°40' W 074°08'1 1.8
2018-Jul-19 18:30N 40°41' W 074°09'0 0.1
2018-Jul-19 18:00N 40°41' W 074°09'1 1.1
2018-Jul-19 17:30N 40°41' W 074°09'0 0.0
2018-Jul-19 17:00N 40°41' W 074°09'0 0.0
2018-Jul-19 16:30N 40°41' W 074°09'0 0.0
2018-Jul-19 16:00N 40°41' W 074°09'0 0.0
2018-Jul-19 15:30N 40°41' W 074°09'0 0.0
2018-Jul-19 15:00N 40°41' W 074°09'0 0.0
2018-Jul-19 14:00N 40°41' W 074°09'0 0.0
2018-Jul-19 13:30N 40°41' W 074°09'0 0.0
2018-Jul-19 13:00N 40°41' W 074°09'0 0.0
2018-Jul-19 12:30N 40°41' W 074°09'0 0.0
2018-Jul-19 12:00N 40°41' W 074°09'0 0.1
2018-Jul-19 11:30N 40°41' W 074°09'1 2.0
2018-Jul-19 11:00N 40°41' W 074°08'2 4.0
2018-Jul-19 10:30N 40°39' W 074°08'1 1.3
2018-Jul-19 10:00N 40°39' W 074°07'0 0.0
2018-Jul-19 09:30N 40°39' W 074°07'0 0.0
2018-Jul-19 09:00N 40°39' W 074°07'0 0.0
2018-Jul-19 08:30N 40°39' W 074°07'0 0.0
2018-Jul-19 08:00N 40°39' W 074°07'0 0.0
2018-Jul-19 07:30N 40°39' W 074°07'0 0.0
2018-Jul-19 07:01N 40°39' W 074°07'3 6.6
2018-Jul-19 06:30N 40°40' W 074°03'0 0.3
2018-Jul-19 06:00N 40°40' W 074°03'1 2.7
2018-Jul-19 05:31N 40°40' W 074°05'0 0.1
2018-Jul-19 05:00N 40°40' W 074°05'0 0.0
2018-Jul-19 04:30N 40°40' W 074°05'0 0.0
2018-Jul-19 04:00N 40°40' W 074°05'0 0.0
2018-Jul-19 03:30N 40°40' W 074°05'2 3.5
2018-Jul-19 02:58N 40°39' W 074°06'2 4.3
2018-Jul-19 02:30N 40°40' W 074°09'0 0.0
2018-Jul-19 02:00N 40°40' W 074°09'1 1.3
2018-Jul-19 01:30N 40°39' W 074°09'3 5.7
2018-Jul-19 01:01N 40°39' W 074°05'0 0.3
2018-Jul-19 00:31N 40°39' W 074°05'4 7.3
2018-Jul-19 00:00N 40°40' W 074°01'1 2.3
2018-Jul-18 23:30N 40°39' W 074°02'4 7.9
2018-Jul-18 23:00N 40°39' W 074°07'2 4.1
2018-Jul-18 22:31N 40°40' W 074°08'1 1.3
2018-Jul-18 22:00N 40°41' W 074°09'0 0.0
2018-Jul-18 21:30N 40°41' W 074°09'0 0.0
2018-Jul-18 21:00N 40°41' W 074°09'1 1.7
2018-Jul-18 20:31N 40°41' W 074°08'0 0.0
2018-Jul-18 20:00N 40°41' W 074°08'1 2.6
2018-Jul-18 19:30N 40°40' W 074°08'0 0.0
2018-Jul-18 19:00N 40°40' W 074°08'0 0.0
2018-Jul-18 18:30N 40°40' W 074°08'0 0.0
2018-Jul-18 18:00N 40°40' W 074°08'0 0.0
2018-Jul-18 17:30N 40°40' W 074°08'0 0.0
2018-Jul-18 17:00N 40°40' W 074°08'0 0.0
2018-Jul-18 16:30N 40°40' W 074°08'1 1.8
2018-Jul-18 16:01N 40°39' W 074°09'3 5.0
2018-Jul-18 15:29N 40°39' W 074°05'0 0.1
2018-Jul-18 15:00N 40°39' W 074°05'3 5.8
2018-Jul-18 14:30N 40°40' W 074°01'1 1.1
2018-Jul-18 13:30N 40°40' W 074°00'0 0.6
2018-Jul-18 13:00N 40°40' W 074°00'4 8.3
2018-Jul-18 12:30N 40°39' W 074°06'2 4.2
2018-Jul-18 11:55N 40°40' W 074°08'0 0.2
2018-Jul-18 11:30N 40°40' W 074°08'1 1.4
2018-Jul-18 10:28N 40°41' W 074°10'0 0.0
2018-Jul-18 09:58N 40°41' W 074°10'0 0.0
2018-Jul-18 09:28N 40°41' W 074°10'0 0.0
2018-Jul-18 08:58N 40°41' W 074°10'0 0.0
2018-Jul-18 08:16N 40°41' W 074°10'0 0.0
2018-Jul-18 07:58N 40°41' W 074°10'0 0.0
2018-Jul-18 07:28N 40°41' W 074°10'0 0.0
2018-Jul-18 06:58N 40°41' W 074°10'0 0.0
2018-Jul-18 06:28N 40°41' W 074°10'0 0.0
2018-Jul-18 05:58N 40°41' W 074°10'0 0.0
2018-Jul-18 05:22N 40°41' W 074°10'1 3.6
2018-Jul-18 05:00N 40°40' W 074°08'2 4.1
2018-Jul-18 04:30N 40°39' W 074°06'1 1.9
2018-Jul-18 03:58N 40°39' W 074°05'3 6.7
2018-Jul-18 03:31N 40°40' W 074°01'1 1.4
2018-Jul-18 03:00N 40°40' W 074°00'0 0.0
2018-Jul-18 02:30N 40°40' W 074°00'0 0.0
2018-Jul-18 02:00N 40°40' W 074°00'0 0.0
2018-Jul-18 01:30N 40°40' W 074°00'0 0.0
2018-Jul-18 01:00N 40°40' W 074°00'0 0.0
2018-Jul-18 00:30N 40°40' W 074°00'0 0.0
2018-Jul-18 00:00N 40°40' W 074°00'0 0.0
2018-Jul-17 23:30N 40°40' W 074°00'0 0.0
2018-Jul-17 23:00N 40°40' W 074°00'0 0.0
2018-Jul-17 22:30N 40°40' W 074°00'0 0.5
2018-Jul-17 21:59N 40°40' W 074°00'1 1.9
2018-Jul-17 21:30N 40°40' W 074°01'4 8.5
2018-Jul-17 21:00N 40°39' W 074°07'3 5.1
2018-Jul-17 20:30N 40°39' W 074°10'1 2.4
2018-Jul-17 20:00N 40°39' W 074°08'2 4.0
2018-Jul-17 19:30N 40°39' W 074°06'0 0.0
2018-Jul-17 19:00N 40°39' W 074°06'0 0.0
2018-Jul-17 18:30N 40°39' W 074°06'1 2.3
2018-Jul-17 18:00N 40°39' W 074°07'2 4.2
2018-Jul-17 17:30N 40°39' W 074°10'1 2.4
2018-Jul-17 17:00N 40°39' W 074°08'4 8.4
2018-Jul-17 16:31N 40°40' W 074°03'1 1.4
2018-Jul-17 16:00N 40°41' W 074°03'0 0.1
2018-Jul-17 15:30N 40°41' W 074°03'2 3.4
2018-Jul-17 14:58N 40°40' W 074°00'0 0.0
2018-Jul-17 14:28N 40°40' W 074°00'0 0.6
2018-Jul-17 13:59N 40°40' W 074°00'0 0.0
2018-Jul-17 13:29N 40°40' W 074°00'0 0.0
2018-Jul-17 12:59N 40°40' W 074°00'0 0.0
2018-Jul-17 12:29N 40°40' W 074°00'0 0.0
2018-Jul-17 11:59N 40°40' W 074°00'0 0.0
2018-Jul-17 11:29N 40°40' W 074°00'0 0.0
2018-Jul-17 10:56N 40°40' W 074°00'0 0.0
2018-Jul-17 10:29N 40°40' W 074°00'0 0.0
2018-Jul-17 09:59N 40°40' W 074°00'0 0.0
2018-Jul-17 09:29N 40°40' W 074°00'0 0.0
2018-Jul-17 08:59N 40°40' W 074°00'0 0.0
2018-Jul-17 08:29N 40°40' W 074°00'0 0.0
2018-Jul-17 07:56N 40°40' W 074°00'0 0.0
2018-Jul-17 07:29N 40°40' W 074°00'0 0.0
2018-Jul-17 06:59N 40°40' W 074°00'0 0.0
2018-Jul-17 06:29N 40°40' W 074°00'0 0.0
2018-Jul-17 05:59N 40°40' W 074°00'0 0.0
2018-Jul-17 05:29N 40°40' W 074°00'0 0.0
2018-Jul-17 04:59N 40°40' W 074°00'0 0.0
2018-Jul-17 04:29N 40°40' W 074°00'0 0.0
2018-Jul-17 03:59N 40°40' W 074°00'0 0.0
2018-Jul-17 03:29N 40°40' W 074°00'0 0.0
2018-Jul-17 02:59N 40°40' W 074°00'0 0.0
2018-Jul-17 02:29N 40°40' W 074°00'0 0.0
2018-Jul-17 02:00N 40°40' W 074°00'0 0.0
2018-Jul-17 01:30N 40°40' W 074°00'0 0.0
2018-Jul-17 01:00N 40°40' W 074°00'0 0.0
2018-Jul-17 00:30N 40°40' W 074°00'0 0.0
2018-Jul-16 23:30N 40°40' W 074°00'0 0.0
2018-Jul-16 23:00N 40°40' W 074°00'0 0.0
2018-Jul-16 22:30N 40°40' W 074°00'0 0.0
2018-Jul-16 22:00N 40°40' W 074°00'0 0.0
2018-Jul-16 21:30N 40°40' W 074°00'0 0.0
2018-Jul-16 21:00N 40°40' W 074°00'0 0.0
2018-Jul-16 20:30N 40°40' W 074°00'0 0.0
2018-Jul-16 20:00N 40°40' W 074°00'0 0.0
2018-Jul-16 19:30N 40°40' W 074°00'0 0.0
2018-Jul-16 19:00N 40°40' W 074°00'0 0.0
2018-Jul-16 18:30N 40°40' W 074°00'0 0.0
2018-Jul-16 18:00N 40°40' W 074°00'0 0.1
2018-Jul-16 17:30N 40°40' W 074°00'0 0.0
2018-Jul-16 17:00N 40°40' W 074°00'0 0.0
2018-Jul-16 16:30N 40°40' W 074°00'0 0.0
2018-Jul-16 16:00N 40°40' W 074°00'0 0.0
2018-Jul-16 15:30N 40°40' W 074°00'0 0.0
2018-Jul-16 15:00N 40°40' W 074°00'0 0.0
2018-Jul-16 14:30N 40°40' W 074°00'0 0.0
2018-Jul-16 14:00N 40°40' W 074°00'0 0.0
2018-Jul-16 13:30N 40°40' W 074°00'0 0.0
2018-Jul-16 13:00N 40°40' W 074°00'0 0.0
2018-Jul-16 12:30N 40°40' W 074°00'0 0.0
2018-Jul-16 12:00N 40°40' W 074°00'0 0.0
2018-Jul-16 11:30N 40°40' W 074°00'0 0.0
2018-Jul-16 11:00N 40°40' W 074°00'0 0.0
2018-Jul-16 10:31N 40°40' W 074°00'0 0.0
2018-Jul-16 10:01N 40°40' W 074°00'0 0.0
2018-Jul-16 09:30N 40°40' W 074°00'0 0.0
2018-Jul-16 09:00N 40°40' W 074°00'0 0.0
2018-Jul-16 08:30N 40°40' W 074°00'0 0.0
2018-Jul-16 08:00N 40°40' W 074°00'0 0.0
2018-Jul-16 07:30N 40°40' W 074°00'0 0.0
2018-Jul-16 07:01N 40°40' W 074°00'2 4.5
2018-Jul-16 06:30N 40°39' W 074°03'0 0.1
2018-Jul-16 06:00N 40°39' W 074°03'0 0.2
2018-Jul-16 05:30N 40°40' W 074°03'0 0.2
2018-Jul-16 05:00N 40°40' W 074°03'0 0.0
2018-Jul-16 04:30N 40°40' W 074°03'0 0.0
2018-Jul-16 04:00N 40°40' W 074°03'0 0.0
2018-Jul-16 03:30N 40°40' W 074°03'0 0.0
2018-Jul-16 03:00N 40°40' W 074°03'0 0.0
2018-Jul-16 02:30N 40°40' W 074°03'0 0.0
2018-Jul-16 02:00N 40°40' W 074°03'0 0.1
2018-Jul-16 01:30N 40°39' W 074°03'0 0.0
2018-Jul-16 01:00N 40°39' W 074°03'0 0.1
2018-Jul-16 00:30N 40°39' W 074°03'0 0.0
2018-Jul-16 00:00N 40°39' W 074°03'0 0.0
2018-Jul-15 23:30N 40°40' W 074°03'0 0.1
2018-Jul-15 23:00N 40°39' W 074°03'0 0.2
2018-Jul-15 22:30N 40°39' W 074°03'0 0.1
2018-Jul-15 22:00N 40°39' W 074°03'0 0.1
2018-Jul-15 21:30N 40°39' W 074°03'0 0.0
2018-Jul-15 21:00N 40°39' W 074°03'0 0.0
2018-Jul-15 20:30N 40°39' W 074°03'0 0.0
2018-Jul-15 19:59N 40°39' W 074°03'0 0.0
2018-Jul-15 19:29N 40°39' W 074°03'0 0.0
2018-Jul-15 19:00N 40°39' W 074°03'0 0.1
2018-Jul-15 18:27N 40°39' W 074°03'0 0.1
2018-Jul-15 18:00N 40°39' W 074°03'0 0.1
2018-Jul-15 17:30N 40°39' W 074°03'0 0.1
2018-Jul-15 17:00N 40°39' W 074°03'0 0.1
2018-Jul-15 16:30N 40°40' W 074°03'0 0.0
2018-Jul-15 15:59N 40°39' W 074°03'0 0.1
2018-Jul-15 15:29N 40°40' W 074°03'0 0.0
2018-Jul-15 15:00N 40°40' W 074°03'0 0.1
2018-Jul-15 14:30N 40°40' W 074°03'0 0.0
2018-Jul-15 14:00N 40°40' W 074°03'1 1.9
2018-Jul-15 13:30N 40°40' W 074°02'50 8.0
2018-Jul-15 07:16N 41°06' W 073°05'2 9.3
2018-Jul-15 07:00N 41°07' W 073°03'7 0.3
2018-Jul-14 07:27N 41°13' W 072°57'0 0.0
2018-Jul-14 06:49N 41°13' W 072°57'0 0.0
2018-Jul-13 16:54N 41°13' W 072°57'0 0.0
2018-Jul-13 10:38N 41°13' W 072°57'0 0.1
2018-Jul-13 10:28N 41°13' W 072°57'0 0.1
2018-Jul-13 09:59N 41°13' W 072°57'0 0.0
2018-Jul-13 09:30N 41°13' W 072°57'0 0.0
2018-Jul-13 08:43N 41°13' W 072°57'0 0.0
2018-Jul-13 08:16N 41°13' W 072°57'0 0.0
2018-Jul-13 07:59N 41°13' W 072°57'0 0.0
2018-Jul-13 07:30N 41°13' W 072°57'0 0.0
2018-Jul-13 07:00N 41°13' W 072°57'0 0.0
2018-Jul-13 06:30N 41°13' W 072°57'0 0.0
2018-Jul-13 06:01N 41°13' W 072°57'0 0.0
2018-Jul-13 05:30N 41°13' W 072°57'0 0.1
2018-Jul-13 05:00N 41°13' W 072°57'0 0.0
2018-Jul-13 04:30N 41°13' W 072°57'0 0.1
2018-Jul-13 03:08N 41°13' W 072°57'0 0.5
2018-Jul-13 03:00N 41°13' W 072°57'46 7.4
2018-Jul-12 20:42N 40°48' W 073°49'2 8.7
2018-Jul-12 20:27N 40°48' W 073°52'3 6.8
2018-Jul-12 20:00N 40°47' W 073°56'3 5.5
2018-Jul-12 19:30N 40°45' W 073°58'2 4.5
2018-Jul-12 19:00N 40°42' W 073°59'2 4.5
2018-Jul-12 18:30N 40°41' W 074°01'2 4.5
2018-Jul-12 18:00N 40°39' W 074°02'2 4.4
2018-Jul-12 17:30N 40°41' W 074°02'3 5.3
2018-Jul-12 17:00N 40°43' W 074°01'2 3.9
2018-Jul-12 16:31N 40°45' W 074°01'1 2.2
2018-Jul-12 16:00N 40°44' W 074°01'2 4.4
2018-Jul-12 15:30N 40°42' W 074°02'2 3.9
2018-Jul-12 15:00N 40°40' W 074°03'2 3.8
2018-Jul-12 14:30N 40°39' W 074°04'2 4.1
2018-Jul-12 14:00N 40°39' W 074°07'0 0.0
2018-Jul-12 13:30N 40°39' W 074°07'0 0.0
2018-Jul-12 13:00N 40°39' W 074°07'0 0.0
2018-Jul-12 12:30N 40°39' W 074°07'3 7.0
2018-Jul-12 12:01N 40°39' W 074°02'2 3.6
2018-Jul-12 11:30N 40°40' W 074°00'0 0.0
2018-Jul-12 11:00N 40°40' W 074°00'0 0.0
2018-Jul-12 10:30N 40°40' W 074°00'0 0.0
2018-Jul-12 10:00N 40°40' W 074°00'0 0.0
2018-Jul-12 09:30N 40°40' W 074°00'0 0.0
2018-Jul-12 09:00N 40°40' W 074°00'0 0.0
2018-Jul-12 08:30N 40°40' W 074°00'0 0.0
2018-Jul-12 08:00N 40°40' W 074°00'0 0.0
2018-Jul-12 07:30N 40°40' W 074°00'1 1.4
2018-Jul-12 07:00N 40°40' W 074°01'4 7.1
2018-Jul-12 06:31N 40°39' W 074°06'1 1.1
2018-Jul-12 06:00N 40°39' W 074°06'2 3.4
2018-Jul-12 05:31N 40°39' W 074°04'3 6.5
2018-Jul-12 05:00N 40°40' W 074°00'0 0.1
2018-Jul-12 04:30N 40°40' W 074°00'0 0.0
2018-Jul-12 04:00N 40°40' W 074°00'0 0.0
2018-Jul-12 03:30N 40°40' W 074°00'0 0.0
2018-Jul-12 03:00N 40°40' W 074°00'0 0.0
2018-Jul-12 02:30N 40°40' W 074°00'0 0.0
2018-Jul-12 02:00N 40°40' W 074°00'0 0.0
2018-Jul-12 01:30N 40°40' W 074°00'0 0.0
2018-Jul-12 01:00N 40°40' W 074°00'1 1.5
2018-Jul-12 00:30N 40°40' W 074°01'  

Dump ship's entire track history